Time;durP1;ratioP1;P1;durP2;ratioP2;P2;SDS_P1;SDS_P2;PMS_P1;PMS_P2;Temp;Humidity;BMP_temperature;BMP_pressure;BME280_temperature;BME280_humidity;BME280_pressure;Samples;Min_cycle;Max_cycle;Signal;HPM_P1;HPM_P2
2024/01/21 09:31:52;;;;;;;;;0.00;0.00;;;;;;;;5107345;27;13374;-88
2024/01/21 09:34:17;;;;;;;;;0.00;0.00;;;;;;;;5112961;27;11564;-76
2024/01/21 09:36:43;;;;;;;;;0.00;0.00;;;;;;;;5107335;28;11423;-73
2024/01/21 10:42:30;;;;;;;;;0.25;0.25;;;;;;;;5104874;27;13265;-74
2024/01/21 10:46:15;;;;;;;;;0.00;0.00;;;;;;;;5105152;27;13392;-70
2024/01/21 10:48:41;;;;;;;;;0.00;0.00;;;;;;;;5107258;28;11432;-69
2024/01/21 11:24:17;;;;;;;;;0.50;0.50;;;;;;;;5124278;27;1308059;-72
2024/01/21 11:26:46;;;;;;;;;0.50;0.50;;;;;;;;5147268;27;8821;-70
2024/01/21 11:29:24;;;;;;;;;1.25;1.25;;;;;;;;5148429;27;8789;-70
2024/01/21 11:31:52;;;;;;;;;2.00;1.00;;;;;;;;5129747;27;10076;-73
2024/01/21 11:34:18;;;;;;;;;1.00;1.00;;;;;;;;5148451;27;9790;-73
2024/01/21 11:36:44;;;;;;;;;1.67;1.00;;;;;;;;5146786;27;9499;-72
2024/01/21 11:39:09;;;;;;;;;0.00;0.00;;;;;;;;5148575;27;8831;-70
2024/01/21 11:41:40;;;;;;;;;0.00;0.00;;;;;;;;5148684;27;8769;-75
2024/01/21 11:44:22;;;;;;;;;2.00;2.00;;;;;;;;5147967;27;8794;-79
2024/01/21 11:46:47;;;;;;;;;7.50;6.75;;;;;;;;5144993;27;9501;-75
2024/01/21 11:49:13;;;;;;;;;22.25;21.00;;;;;;;;5138259;27;9630;-75
2024/01/21 11:51:38;;;;;;;;;24.50;22.00;;;;;;;;5147964;27;8789;-75
2024/01/21 11:54:04;;;;;;;;;31.00;29.50;;;;;;;;5147767;27;8819;-73
2024/01/21 11:56:30;;;;;;;;;26.25;24.75;;;;;;;;5147810;27;8817;-72
2024/01/21 11:58:55;;;;;;;;;3.50;2.50;;;;;;;;5147779;27;9527;-74
2024/01/21 12:01:21;;;;;;;;;5.50;5.50;;;;;;;;5147637;27;8785;-73
2024/01/21 12:03:47;;;;;;;;;0.00;0.00;;;;;;;;5147641;27;8793;-72
2024/01/21 12:06:14;;;;;;;;;5.50;4.50;;;;;;;;5148027;27;10979;-74
2024/01/21 12:08:43;;;;;;;;;1.00;0.00;;;;;;;;5148192;27;8770;-74
2024/01/21 12:11:08;;;;;;;;;0.00;0.00;;;;;;;;5148054;27;10453;-73
2024/01/21 12:13:33;;;;;;;;;0.00;0.00;;;;;;;;5129567;27;10435;-73
2024/01/21 12:15:58;;;;;;;;;0.00;0.00;;;;;;;;5129269;27;8873;-74
2024/01/21 12:18:24;;;;;;;;;48.25;40.25;;;;;;;;5119163;22;9738;-77
2024/01/21 12:20:50;;;;;;;;;9.75;6.00;;;;;;;;5087237;28;8798;-78
2024/01/21 12:23:20;;;;;;;;;34.75;32.75;;;;;;;;5087138;28;8826;-78
2024/01/21 12:25:46;;;;;;;;;0.00;0.00;;;;;;;;5087374;28;8867;-77
2024/01/21 12:28:12;;;;;;;;;0.00;0.00;;;;;;;;5087116;28;11411;-78
2024/01/21 12:30:37;;;;;;;;;0.00;0.00;;;;;;;;5087281;28;8783;-78
2024/01/21 12:33:03;;;;;;;;;2.00;1.00;;;;;;;;5085813;28;8864;-78
2024/01/21 12:35:28;;;;;;;;;0.00;0.00;;;;;;;;5074624;28;8795;-77
2024/01/21 12:37:54;;;;;;;;;348.50;284.50;;;;;;;;5073345;28;8787;-77
2024/01/21 12:40:19;;;;;;;;;203.75;172.50;;;;;;;;5073662;28;8809;-77
2024/01/21 12:42:44;;;;;;;;;147.00;128.75;;;;;;;;5073482;28;8822;-77
2024/01/21 12:45:10;;;;;;;;;55.00;38.50;;;;;;;;5073272;28;8913;-77
2024/01/21 12:47:38;;;;;;;;;33.75;29.75;;;;;;;;5073272;28;8786;-77
2024/01/21 12:50:03;;;;;;;;;31.00;29.50;;;;;;;;5073050;28;11536;-77
2024/01/21 12:52:28;;;;;;;;;0.50;0.50;;;;;;;;5073572;28;11546;-77
2024/01/21 12:54:54;;;;;;;;;0.00;0.00;;;;;;;;5073566;28;8775;-77
2024/01/21 12:57:19;;;;;;;;;0.00;0.00;;;;;;;;5072112;28;8803;-77
2024/01/21 12:59:44;;;;;;;;;0.00;0.00;;;;;;;;5073145;28;9662;-78
2024/01/21 13:02:09;;;;;;;;;0.00;0.00;;;;;;;;5073204;28;8794;-77
2024/01/21 13:04:35;;;;;;;;;0.00;0.00;;;;;;;;5073036;28;8787;-77
2024/01/21 13:07:00;;;;;;;;;7.25;4.75;;;;;;;;5072954;28;9540;-77
2024/01/21 13:09:25;;;;;;;;;6.00;4.00;;;;;;;;5071770;28;8802;-77
2024/01/21 13:11:51;;;;;;;;;0.00;0.00;;;;;;;;5073069;28;8935;-76
2024/01/21 13:14:16;;;;;;;;;0.00;0.00;;;;;;;;5071699;28;8929;-76
2024/01/21 13:16:41;;;;;;;;;0.00;0.00;;;;;;;;5072153;28;8817;-76
2024/01/21 13:19:07;;;;;;;;;0.00;0.00;;;;;;;;5072635;28;8866;-77
2024/01/21 13:21:32;;;;;;;;;0.50;0.00;;;;;;;;5072720;28;8801;-78
2024/01/21 13:23:58;;;;;;;;;0.00;0.00;;;;;;;;5072963;28;8903;-77
2024/01/21 13:26:25;;;;;;;;;0.00;0.00;;;;;;;;5071463;28;8806;-77
2024/01/21 13:31:34;;;;;;;;;1.00;1.00;;;;;;;;5072513;28;12226;-75
2024/01/21 13:34:01;;;;;;;;;0.00;0.00;;;;;;;;5072278;28;11446;-76
2024/01/21 13:36:26;;;;;;;;;14.00;10.00;;;;;;;;5072394;28;8770;-76
2024/01/21 13:38:52;;;;;;;;;9.75;9.75;;;;;;;;5072282;28;11494;-76
2024/01/21 13:41:17;;;;;;;;;4.25;4.00;;;;;;;;5072466;28;9493;-76
2024/01/21 13:43:42;;;;;;;;;5.00;1.25;;;;;;;;5072106;28;8822;-75
2024/01/21 13:46:07;;;;;;;;;4.25;4.00;;;;;;;;5071235;28;8795;-76
2024/01/21 13:48:33;;;;;;;;;4.75;4.75;;;;;;;;5072029;28;8832;-76
2024/01/21 13:50:59;;;;;;;;;0.75;0.00;;;;;;;;5072475;28;8863;-76
2024/01/21 13:53:24;;;;;;;;;4.00;4.00;;;;;;;;5072188;28;8814;-76
2024/01/21 13:55:49;;;;;;;;;1.00;1.00;;;;;;;;5070923;28;8917;-76
2024/01/21 13:58:19;;;;;;;;;1.00;1.00;;;;;;;;5072006;28;8779;-76
2024/01/21 14:00:44;;;;;;;;;1.00;0.00;;;;;;;;5072111;28;8775;-76
2024/01/21 14:03:10;;;;;;;;;0.00;0.00;;;;;;;;5071756;28;11395;-76
2024/01/21 14:05:38;;;;;;;;;0.00;0.00;;;;;;;;5072055;28;8893;-76
2024/01/21 14:08:03;;;;;;;;;0.00;0.00;;;;;;;;5072066;28;8775;-77
2024/01/21 14:10:29;;;;;;;;;0.00;0.00;;;;;;;;5072165;28;11374;-76
2024/01/21 14:12:54;;;;;;;;;0.00;0.00;;;;;;;;5071920;28;8798;-76
2024/01/21 14:15:19;;;;;;;;;0.00;0.00;;;;;;;;5071845;28;8825;-77
2024/01/21 14:17:45;;;;;;;;;0.00;0.00;;;;;;;;5071957;28;8926;-77
2024/01/21 14:20:13;;;;;;;;;0.00;0.00;;;;;;;;5071651;28;8774;-77
2024/01/21 14:22:39;;;;;;;;;8.25;5.75;;;;;;;;5072025;28;9633;-77
2024/01/21 14:25:05;;;;;;;;;8.25;8.25;;;;;;;;5071871;28;11447;-77
2024/01/21 14:27:31;;;;;;;;;1.75;0.00;;;;;;;;5071645;28;9573;-77
2024/01/21 14:30:02;;;;;;;;;0.00;0.00;;;;;;;;5071440;28;11546;-77
2024/01/21 14:32:27;;;;;;;;;0.00;0.00;;;;;;;;5071653;28;9621;-77
2024/01/21 14:34:53;;;;;;;;;0.00;0.00;;;;;;;;5071302;28;11377;-77
2024/01/21 14:37:19;;;;;;;;;1.25;0.00;;;;;;;;5071386;28;8775;-77
2024/01/21 14:39:44;;;;;;;;;0.00;0.00;;;;;;;;5071210;28;8883;-77
2024/01/21 14:42:09;;;;;;;;;0.00;0.00;;;;;;;;5071144;28;8874;-77
2024/01/21 14:44:35;;;;;;;;;0.00;0.00;;;;;;;;5071314;28;8783;-77
2024/01/21 14:47:00;;;;;;;;;0.00;0.00;;;;;;;;5071108;28;8806;-76
2024/01/21 14:49:25;;;;;;;;;0.00;0.00;;;;;;;;5071035;28;8806;-77
2024/01/21 14:51:51;;;;;;;;;0.00;0.00;;;;;;;;5071303;28;9943;-76
2024/01/21 14:54:16;;;;;;;;;0.00;0.00;;;;;;;;5071173;28;8786;-75
2024/01/21 14:56:41;;;;;;;;;0.00;0.00;;;;;;;;5070828;28;8841;-76
2024/01/21 14:59:07;;;;;;;;;1.00;0.00;;;;;;;;5070958;28;8891;-75
2024/01/21 15:01:33;;;;;;;;;1.00;0.00;;;;;;;;5070988;28;9508;-76
2024/01/21 15:03:58;;;;;;;;;0.00;0.00;;;;;;;;5069424;28;8822;-76
2024/01/21 15:06:27;;;;;;;;;0.00;0.00;;;;;;;;5070935;28;8913;-76
2024/01/21 15:08:53;;;;;;;;;0.00;0.00;;;;;;;;5071123;28;8798;-76
2024/01/21 15:11:18;;;;;;;;;0.00;0.00;;;;;;;;5070799;28;12148;-74
2024/01/21 15:13:44;;;;;;;;;0.00;0.00;;;;;;;;5070946;28;9543;-73
2024/01/21 15:16:09;;;;;;;;;0.00;0.00;;;;;;;;5070738;28;8875;-73
2024/01/21 15:18:34;;;;;;;;;1.00;0.00;;;;;;;;5071123;28;9524;-73
2024/01/21 15:21:00;;;;;;;;;0.50;0.00;;;;;;;;5070799;28;9552;-74
2024/01/21 15:23:25;;;;;;;;;1.00;0.00;;;;;;;;5070730;28;8822;-75
2024/01/21 15:25:51;;;;;;;;;1.00;0.00;;;;;;;;5070705;28;8799;-75
2024/01/21 15:28:16;;;;;;;;;0.00;0.00;;;;;;;;5070646;28;8790;-76
2024/01/21 15:30:43;;;;;;;;;2.00;0.00;;;;;;;;5070347;28;9024;-74
2024/01/21 15:33:09;;;;;;;;;0.00;0.00;;;;;;;;5068866;28;8787;-73
2024/01/21 15:35:34;;;;;;;;;0.00;0.00;;;;;;;;5069741;28;11556;-86
2024/01/21 15:38:00;;;;;;;;;1.75;0.00;;;;;;;;5066958;28;11617;-75
2024/01/21 15:40:25;;;;;;;;;0.00;0.00;;;;;;;;5070361;28;8791;-73
2024/01/21 15:42:51;;;;;;;;;0.00;0.00;;;;;;;;5070229;28;8940;-78
2024/01/21 15:45:16;;;;;;;;;1.00;0.00;;;;;;;;5070012;28;8803;-75
2024/01/21 15:47:42;;;;;;;;;0.00;0.00;;;;;;;;5069839;28;8811;-77
2024/01/21 15:50:08;;;;;;;;;0.00;0.00;;;;;;;;5070087;28;8925;-78
2024/01/21 15:52:38;;;;;;;;;0.00;0.00;;;;;;;;5069986;28;8932;-77
2024/01/21 15:55:04;;;;;;;;;0.00;0.00;;;;;;;;5068607;28;8803;-77
2024/01/21 15:57:29;;;;;;;;;2.50;1.75;;;;;;;;5069361;28;11540;-77
2024/01/21 15:59:56;;;;;;;;;4.75;1.00;;;;;;;;5068056;28;8837;-74
2024/01/21 16:02:22;;;;;;;;;1.00;1.00;;;;;;;;5069436;28;8854;-75
2024/01/21 16:04:47;;;;;;;;;1.00;0.00;;;;;;;;5069461;28;11588;-73
2024/01/21 16:07:17;;;;;;;;;1.50;0.00;;;;;;;;5068553;28;8842;-74
2024/01/21 16:09:42;;;;;;;;;1.00;0.00;;;;;;;;5060382;28;8829;-73
2024/01/21 16:12:07;;;;;;;;;3.50;2.00;;;;;;;;5060298;28;11469;-74
2024/01/21 16:14:32;;;;;;;;;0.75;0.75;;;;;;;;5065662;28;8818;-74
2024/01/21 16:16:58;;;;;;;;;0.75;0.75;;;;;;;;5063932;28;9528;-76
2024/01/21 16:19:23;;;;;;;;;0.00;0.00;;;;;;;;5061668;28;8834;-77
2024/01/21 16:21:53;;;;;;;;;0.00;0.00;;;;;;;;5071746;28;8864;-77
2024/01/21 16:24:19;;;;;;;;;0.00;0.00;;;;;;;;5070640;28;8874;-76
2024/01/21 16:26:44;;;;;;;;;1.00;1.00;;;;;;;;5071103;28;11498;-74
2024/01/21 16:29:10;;;;;;;;;1.00;1.00;;;;;;;;5069656;28;8791;-75
2024/01/21 16:31:35;;;;;;;;;2.00;1.00;;;;;;;;5069496;28;8825;-75
2024/01/21 16:34:00;;;;;;;;;2.00;1.00;;;;;;;;5071135;28;8810;-75
2024/01/21 16:36:26;;;;;;;;;3.50;2.00;;;;;;;;5070931;28;9294;-74
2024/01/21 16:38:51;;;;;;;;;2.75;2.00;;;;;;;;5073281;28;8802;-73
2024/01/21 16:41:16;;;;;;;;;2.00;2.00;;;;;;;;5071722;28;8802;-73
2024/01/21 16:43:41;;;;;;;;;4.00;4.00;;;;;;;;5071948;28;8866;-79
2024/01/21 16:46:07;;;;;;;;;5.00;4.00;;;;;;;;5073188;28;8783;-76
2024/01/21 16:48:33;;;;;;;;;5.00;4.25;;;;;;;;5073257;28;8834;-79
2024/01/21 16:51:02;;;;;;;;;4.75;3.00;;;;;;;;5061053;28;9640;-78
2024/01/21 16:53:28;;;;;;;;;4.75;4.75;;;;;;;;5065488;28;9576;-73
2024/01/21 16:55:54;;;;;;;;;8.00;7.00;;;;;;;;5061056;28;11544;-73
2024/01/21 16:58:19;;;;;;;;;7.75;7.25;;;;;;;;5072746;28;11467;-72
2024/01/21 17:00:48;;;;;;;;;6.50;5.00;;;;;;;;5071355;28;8790;-73
2024/01/21 17:03:15;;;;;;;;;4.00;4.00;;;;;;;;5071382;28;8842;-73
2024/01/21 17:05:41;;;;;;;;;8.00;4.25;;;;;;;;5072456;28;11452;-73
2024/01/21 17:08:06;;;;;;;;;5.50;5.00;;;;;;;;5072701;28;11497;-74
2024/01/21 17:10:37;;;;;;;;;7.00;7.00;;;;;;;;5071285;28;8802;-74
2024/01/21 17:13:03;;;;;;;;;5.50;5.00;;;;;;;;5066574;28;8885;-74
2024/01/21 17:15:28;;;;;;;;;6.25;6.00;;;;;;;;5070925;28;11515;-73
2024/01/21 17:17:57;;;;;;;;;15.00;14.75;;;;;;;;5080696;22;8860;-72
2024/01/21 17:20:22;;;;;;;;;15.75;13.50;;;;;;;;5050342;28;9613;-71
2024/01/21 17:22:47;;;;;;;;;10.25;10.00;;;;;;;;5045974;28;11549;-72
2024/01/21 17:25:13;;;;;;;;;13.00;9.25;;;;;;;;5050913;28;8908;-72
2024/01/21 17:27:38;;;;;;;;;5.00;5.00;;;;;;;;5050949;28;8782;-72
2024/01/21 17:30:05;;;;;;;;;5.00;3.50;;;;;;;;5048554;28;8810;-71
2024/01/21 17:32:30;;;;;;;;;12.75;9.75;;;;;;;;5051129;28;8814;-72
2024/01/21 17:34:56;;;;;;;;;14.00;8.00;;;;;;;;5051129;28;12183;-72
2024/01/21 17:37:21;;;;;;;;;14.00;14.00;;;;;;;;5041350;28;8800;-73
2024/01/21 17:39:46;;;;;;;;;10.50;10.50;;;;;;;;5037345;28;8815;-73
2024/01/21 17:42:11;;;;;;;;;9.00;7.25;;;;;;;;5050942;28;8828;-70
2024/01/21 17:44:37;;;;;;;;;10.00;8.00;;;;;;;;5043968;28;8814;-70
2024/01/21 17:47:02;;;;;;;;;7.50;7.50;;;;;;;;5041956;28;8780;-70
2024/01/21 17:49:29;;;;;;;;;11.00;9.00;;;;;;;;5040043;28;8796;-70
2024/01/21 17:51:54;;;;;;;;;10.25;10.25;;;;;;;;5042467;28;8806;-70
2024/01/21 17:54:19;;;;;;;;;15.50;15.50;;;;;;;;5040878;28;11595;-70
2024/01/21 17:56:45;;;;;;;;;21.00;13.25;;;;;;;;5041101;28;8809;-70
2024/01/21 17:59:10;;;;;;;;;21.75;17.75;;;;;;;;5041985;28;8810;-70
2024/01/21 18:01:35;;;;;;;;;25.50;19.00;;;;;;;;5039911;28;8803;-69
2024/01/21 18:04:01;;;;;;;;;22.67;19.00;;;;;;;;5041118;28;8825;-69
2024/01/21 18:06:28;;;;;;;;;24.67;21.00;;;;;;;;5041318;28;8818;-70
2024/01/21 18:08:54;;;;;;;;;21.00;21.00;;;;;;;;5038257;28;11570;-71
2024/01/21 18:11:19;;;;;;;;;15.00;15.00;;;;;;;;5040117;28;12234;-71
2024/01/21 18:13:45;;;;;;;;;22.33;19.67;;;;;;;;5040907;28;11562;-70
2024/01/21 18:16:12;;;;;;;;;19.33;17.67;;;;;;;;5040027;28;8962;-69
2024/01/21 18:18:37;;;;;;;;;23.67;23.00;;;;;;;;5073084;22;9086;-73
2024/01/21 18:21:03;;;;;;;;;24.00;22.67;;;;;;;;5070311;28;11513;-73
2024/01/21 18:23:30;;;;;;;;;20.67;20.67;;;;;;;;5069997;28;8818;-74
2024/01/21 18:25:58;;;;;;;;;26.33;19.33;;;;;;;;5070046;28;8771;-73
2024/01/21 18:28:24;;;;;;;;;23.33;20.00;;;;;;;;5070110;28;11500;-74
2024/01/21 18:30:49;;;;;;;;;18.33;18.00;;;;;;;;5069777;28;11501;-73
2024/01/21 18:33:14;;;;;;;;;20.33;19.33;;;;;;;;5069397;28;8791;-72
2024/01/21 18:35:41;;;;;;;;;0.00;0.00;;;;;;;;5069992;28;8786;-74
2024/01/21 18:38:06;;;;;;;;;22.33;18.00;;;;;;;;5070025;28;8822;-71
2024/01/21 18:40:31;;;;;;;;;16.33;13.00;;;;;;;;5069618;28;8783;-77
2024/01/21 18:42:57;;;;;;;;;18.67;16.00;;;;;;;;5069719;28;8941;-72
2024/01/21 18:45:22;;;;;;;;;26.67;17.67;;;;;;;;5065825;28;8820;-71
2024/01/21 18:47:47;;;;;;;;;10.00;8.00;;;;;;;;5069751;28;8806;-73
2024/01/21 18:50:12;;;;;;;;;24.50;17.00;;;;;;;;5069103;28;8786;-74
2024/01/21 18:52:38;;;;;;;;;17.00;17.00;;;;;;;;5069050;28;8832;-72
2024/01/21 18:55:03;;;;;;;;;17.33;14.67;;;;;;;;5069250;28;8787;-72
2024/01/21 18:57:28;;;;;;;;;24.00;17.00;;;;;;;;5069460;28;8830;-73
2024/01/21 18:59:54;;;;;;;;;19.33;17.67;;;;;;;;5067131;28;8799;-74
2024/01/21 19:02:19;;;;;;;;;18.33;14.67;;;;;;;;5069058;28;8795;-73
2024/01/21 19:04:45;;;;;;;;;19.67;17.33;;;;;;;;5069591;28;8814;-74
2024/01/21 19:07:11;;;;;;;;;23.00;21.33;;;;;;;;5069455;28;8807;-73
2024/01/21 19:09:36;;;;;;;;;24.00;21.67;;;;;;;;5067266;28;11534;-72
2024/01/21 19:12:02;;;;;;;;;28.33;21.00;;;;;;;;5069192;28;8782;-73
2024/01/21 19:14:27;;;;;;;;;24.33;24.00;;;;;;;;5056014;28;8841;-71
2024/01/21 19:16:52;;;;;;;;;31.00;25.33;;;;;;;;5068438;28;8799;-71
2024/01/21 19:19:18;;;;;;;;;27.00;25.00;;;;;;;;5067451;28;8911;-69
2024/01/21 19:21:43;;;;;;;;;30.33;24.00;;;;;;;;5068759;28;8815;-70
2024/01/21 19:24:09;;;;;;;;;29.67;27.33;;;;;;;;5069087;28;8838;-71
2024/01/21 19:26:36;;;;;;;;;37.00;30.67;;;;;;;;5068995;28;8842;-70
2024/01/21 19:29:01;;;;;;;;;32.00;26.67;;;;;;;;5067242;28;8900;-71
2024/01/21 19:31:26;;;;;;;;;31.00;28.67;;;;;;;;5069068;28;8921;-70
2024/01/21 19:33:55;;;;;;;;;24.33;21.00;;;;;;;;5069463;28;8819;-69
2024/01/21 19:36:21;;;;;;;;;26.00;23.00;;;;;;;;5068415;28;8857;-72
2024/01/21 19:38:46;;;;;;;;;29.00;23.00;;;;;;;;5067442;28;8807;-73
2024/01/21 19:41:12;;;;;;;;;26.67;23.00;;;;;;;;5069285;28;8810;-74
2024/01/21 19:43:38;;;;;;;;;26.67;24.00;;;;;;;;5069350;28;8810;-73
2024/01/21 19:46:05;;;;;;;;;24.00;23.67;;;;;;;;5073214;28;8840;-72
2024/01/21 19:48:30;;;;;;;;;21.67;21.00;;;;;;;;5071251;28;8997;-73
2024/01/21 19:50:55;;;;;;;;;26.00;21.67;;;;;;;;5072484;28;8825;-72
2024/01/21 19:53:21;;;;;;;;;1.50;1.50;;;;;;;;5072769;28;8818;-74
2024/01/21 19:55:46;;;;;;;;;23.67;19.00;;;;;;;;5072769;28;8814;-72
2024/01/21 19:58:12;;;;;;;;;23.00;22.33;;;;;;;;5068203;28;8999;-72
2024/01/21 20:00:37;;;;;;;;;51.33;44.33;;;;;;;;5072047;28;8817;-68
2024/01/21 20:03:02;;;;;;;;;32.67;22.33;;;;;;;;5072179;28;8896;-71
2024/01/21 20:05:28;;;;;;;;;24.33;20.00;;;;;;;;5072594;28;8825;-72
2024/01/21 20:07:53;;;;;;;;;20.33;20.00;;;;;;;;5072500;28;8929;-72
2024/01/21 20:10:19;;;;;;;;;26.00;25.33;;;;;;;;5070989;28;8799;-72
2024/01/21 20:12:45;;;;;;;;;32.67;22.67;;;;;;;;5055852;28;8814;-73
2024/01/21 20:15:10;;;;;;;;;30.67;26.00;;;;;;;;5053709;28;8802;-72
2024/01/21 20:17:35;;;;;;;;;26.67;23.67;;;;;;;;5088106;22;8782;-68
2024/01/21 20:20:01;;;;;;;;;29.33;24.33;;;;;;;;5017955;28;8828;-68
2024/01/21 20:22:26;;;;;;;;;20.00;20.00;;;;;;;;5045619;28;8837;-69
2024/01/21 20:24:51;;;;;;;;;27.33;23.67;;;;;;;;5053557;28;8859;-68
2024/01/21 20:27:18;;;;;;;;;26.00;22.67;;;;;;;;5053482;28;8798;-68
2024/01/21 20:29:44;;;;;;;;;29.00;19.67;;;;;;;;5051288;28;8810;-69
2024/01/21 20:32:09;;;;;;;;;23.33;22.67;;;;;;;;5053580;28;8945;-68
2024/01/21 20:34:34;;;;;;;;;25.33;25.00;;;;;;;;5053314;28;8802;-68
2024/01/21 20:36:59;;;;;;;;;29.33;24.00;;;;;;;;5053441;28;8908;-68
2024/01/21 20:39:25;;;;;;;;;21.33;21.33;;;;;;;;5053575;28;8782;-68
2024/01/21 20:41:50;;;;;;;;;27.00;21.00;;;;;;;;5053423;28;8796;-68
2024/01/21 20:44:15;;;;;;;;;29.00;23.33;;;;;;;;5052874;28;8819;-68
2024/01/21 20:46:41;;;;;;;;;24.00;22.00;;;;;;;;5053263;28;8787;-70
2024/01/21 20:49:06;;;;;;;;;30.33;25.33;;;;;;;;5035435;28;8814;-71
2024/01/21 20:51:31;;;;;;;;;26.67;24.00;;;;;;;;5052998;28;8795;-69
2024/01/21 20:53:57;;;;;;;;;22.00;19.67;;;;;;;;5053115;28;8778;-70
2024/01/21 20:56:24;;;;;;;;;18.67;17.33;;;;;;;;5052181;28;8787;-69
2024/01/21 20:58:49;;;;;;;;;37.67;27.33;;;;;;;;5053019;28;8826;-68
2024/01/21 21:01:14;;;;;;;;;27.67;26.67;;;;;;;;5053142;28;8848;-68
2024/01/21 21:03:40;;;;;;;;;31.67;31.00;;;;;;;;5053072;28;8944;-67
2024/01/21 21:06:05;;;;;;;;;31.00;28.67;;;;;;;;5052580;28;9524;-68
2024/01/21 21:08:30;;;;;;;;;28.33;25.67;;;;;;;;5033056;28;8785;-67
2024/01/21 21:10:55;;;;;;;;;32.67;31.33;;;;;;;;5050908;28;8925;-67
2024/01/21 21:13:22;;;;;;;;;32.67;27.67;;;;;;;;5053052;28;9531;-67
2024/01/21 21:15:47;;;;;;;;;39.33;31.00;;;;;;;;5052835;28;8791;-66
2024/01/21 21:18:13;;;;;;;;;44.00;31.00;;;;;;;;5052635;28;8794;-67
2024/01/21 21:20:38;;;;;;;;;31.00;30.00;;;;;;;;5052592;28;8879;-67
2024/01/21 21:23:03;;;;;;;;;33.00;29.67;;;;;;;;5052791;28;8826;-67
2024/01/21 21:25:29;;;;;;;;;28.00;28.00;;;;;;;;5043559;28;8817;-67
2024/01/21 21:27:55;;;;;;;;;30.00;29.00;;;;;;;;5025677;28;8859;-66
2024/01/21 21:30:20;;;;;;;;;27.33;24.33;;;;;;;;5021571;28;8853;-66
2024/01/21 21:32:46;;;;;;;;;26.33;25.67;;;;;;;;5052516;28;8806;-65
2024/01/21 21:35:11;;;;;;;;;31.67;28.67;;;;;;;;5034643;28;8880;-66
2024/01/21 21:37:37;;;;;;;;;28.33;27.67;;;;;;;;5034459;28;9566;-66
2024/01/21 21:40:03;;;;;;;;;33.00;26.33;;;;;;;;5034322;28;8917;-66
2024/01/21 21:42:28;;;;;;;;;28.67;28.00;;;;;;;;5052354;28;8797;-66
2024/01/21 21:44:53;;;;;;;;;30.33;25.67;;;;;;;;5052234;28;8794;-66
2024/01/21 21:47:18;;;;;;;;;32.67;26.00;;;;;;;;5052240;28;8795;-66
2024/01/21 21:49:44;;;;;;;;;29.00;24.33;;;;;;;;5052159;28;8779;-67
2024/01/21 21:52:10;;;;;;;;;25.33;23.67;;;;;;;;5052202;28;8923;-66
2024/01/21 21:54:35;;;;;;;;;25.33;23.67;;;;;;;;5051978;28;8802;-66
2024/01/21 21:57:00;;;;;;;;;28.33;26.33;;;;;;;;5052263;28;8817;-66
2024/01/21 21:59:26;;;;;;;;;28.00;26.33;;;;;;;;5051949;28;8786;-66
2024/01/21 22:01:51;;;;;;;;;30.00;26.00;;;;;;;;5052377;28;8778;-68
2024/01/21 22:04:17;;;;;;;;;26.33;22.33;;;;;;;;5051058;28;8840;-67
2024/01/21 22:06:42;;;;;;;;;26.00;23.00;;;;;;;;5025166;28;8794;-66
2024/01/21 22:09:07;;;;;;;;;23.33;21.00;;;;;;;;5051552;28;8779;-68
2024/01/21 22:11:33;;;;;;;;;26.00;24.00;;;;;;;;5033947;28;8810;-67
2024/01/21 22:13:58;;;;;;;;;31.67;27.00;;;;;;;;5051904;28;8786;-67
2024/01/21 22:16:23;;;;;;;;;29.00;26.00;;;;;;;;5051536;28;8984;-68
2024/01/21 22:18:48;;;;;;;;;23.33;21.33;;;;;;;;5051569;28;8811;-68
2024/01/21 22:21:15;;;;;;;;;22.00;21.67;;;;;;;;5051617;28;8912;-68
2024/01/21 22:23:40;;;;;;;;;26.00;22.67;;;;;;;;5051549;28;8840;-71
2024/01/21 22:26:05;;;;;;;;;28.00;24.00;;;;;;;;5051313;28;8907;-69
2024/01/21 22:28:30;;;;;;;;;22.67;22.33;;;;;;;;5051554;28;8825;-69
2024/01/21 22:30:56;;;;;;;;;25.33;22.67;;;;;;;;5051562;28;8786;-68
2024/01/21 22:33:21;;;;;;;;;25.33;21.00;;;;;;;;5051477;28;8787;-69
2024/01/21 22:35:47;;;;;;;;;20.33;20.00;;;;;;;;5051295;28;8801;-69
2024/01/21 22:38:12;;;;;;;;;23.67;21.00;;;;;;;;5051313;28;8779;-69
2024/01/21 22:40:37;;;;;;;;;21.67;21.67;;;;;;;;5051129;28;8774;-68
2024/01/21 22:43:03;;;;;;;;;24.33;20.33;;;;;;;;5051181;28;9544;-69
2024/01/21 22:45:28;;;;;;;;;23.67;19.00;;;;;;;;5051190;28;8809;-68
2024/01/21 22:47:53;;;;;;;;;19.00;19.00;;;;;;;;5054245;28;8796;-69
2024/01/21 22:50:18;;;;;;;;;23.00;19.33;;;;;;;;5071079;28;8792;-69
2024/01/21 22:52:43;;;;;;;;;21.33;16.00;;;;;;;;5071039;28;8788;-68
2024/01/21 22:55:09;;;;;;;;;25.33;22.33;;;;;;;;5070857;28;8788;-68
2024/01/21 22:57:34;;;;;;;;;21.33;18.67;;;;;;;;5071018;28;8792;-69
2024/01/21 23:00:03;;;;;;;;;16.33;16.33;;;;;;;;5070951;28;8850;-69
2024/01/21 23:02:29;;;;;;;;;17.33;16.00;;;;;;;;5052917;28;8967;-68
2024/01/21 23:04:56;;;;;;;;;20.33;17.67;;;;;;;;5052716;28;9657;-69
2024/01/21 23:07:22;;;;;;;;;22.00;18.33;;;;;;;;5070997;28;8777;-69
2024/01/21 23:09:49;;;;;;;;;18.00;16.00;;;;;;;;5070854;28;8950;-68
2024/01/21 23:12:14;;;;;;;;;20.00;20.00;;;;;;;;5070558;28;8768;-68
2024/01/21 23:14:39;;;;;;;;;22.00;19.33;;;;;;;;5070816;28;8823;-69
2024/01/21 23:17:05;;;;;;;;;21.67;19.00;;;;;;;;5054220;28;8832;-69
2024/01/21 23:19:31;;;;;;;;;25.67;24.00;;;;;;;;5051086;28;8832;-69
2024/01/21 23:21:56;;;;;;;;;22.00;19.33;;;;;;;;5032799;28;8810;-69
2024/01/21 23:24:21;;;;;;;;;18.33;17.33;;;;;;;;5050634;28;8806;-69
2024/01/21 23:26:47;;;;;;;;;18.67;18.67;;;;;;;;5050812;28;8805;-69
2024/01/21 23:29:12;;;;;;;;;21.33;19.67;;;;;;;;5050665;28;8782;-69
2024/01/21 23:31:37;;;;;;;;;22.67;20.33;;;;;;;;5050687;28;8786;-69
2024/01/21 23:34:02;;;;;;;;;19.00;16.00;;;;;;;;5050504;28;8794;-69
2024/01/21 23:36:28;;;;;;;;;20.67;19.67;;;;;;;;5032636;28;8798;-69
2024/01/21 23:38:54;;;;;;;;;26.33;18.67;;;;;;;;5050818;28;8899;-69
2024/01/21 23:41:19;;;;;;;;;18.00;18.00;;;;;;;;5050525;28;8934;-69
2024/01/21 23:43:44;;;;;;;;;23.67;20.67;;;;;;;;5050436;28;8830;-69
2024/01/21 23:46:10;;;;;;;;;19.33;19.33;;;;;;;;5032527;28;8802;-69
2024/01/21 23:48:35;;;;;;;;;25.33;20.33;;;;;;;;5032600;28;8806;-69
